Time;durP1;ratioP1;P1;durP2;ratioP2;P2;SDS_P1;SDS_P2;PMS_P1;PMS_P2;Temp;Humidity;BMP_temperature;BMP_pressure;BME280_temperature;BME280_humidity;BME280_pressure;Samples;Min_cycle;Max_cycle;Signal;HPM_P1;HPM_P2
2023/09/06 00:00:18;;;;;;;7.78;4.55;;;;;;;20.87;100.00;96621.31;6130188;23;20013;-82
2023/09/06 00:02:44;;;;;;;9.45;4.45;;;;;;;20.79;100.00;96626.91;6131630;23;20040;-82
2023/09/06 00:05:09;;;;;;;7.43;4.88;;;;;;;20.67;100.00;96631.28;6130578;23;20341;-80
2023/09/06 00:07:35;;;;;;;7.03;4.40;;;;;;;20.79;100.00;96631.41;6155131;23;19997;-81
2023/09/06 00:10:00;;;;;;;8.70;5.10;;;;;;;20.84;100.00;96634.28;6130359;23;20009;-81
2023/09/06 00:12:27;;;;;;;8.73;5.25;;;;;;;20.59;100.00;96634.19;6130517;23;20035;-82
2023/09/06 00:14:54;;;;;;;7.18;4.28;;;;;;;20.75;100.00;96639.06;6130343;23;20005;-81
2023/09/06 00:17:20;;;;;;;6.13;4.07;;;;;;;20.87;100.00;96633.88;6129664;23;20005;-82
2023/09/06 00:19:46;;;;;;;7.50;4.72;;;;;;;20.97;100.00;96631.53;6155188;23;20012;-82
2023/09/06 00:22:13;;;;;;;7.15;4.70;;;;;;;20.95;100.00;96628.25;6130338;23;20012;-81
2023/09/06 00:24:39;;;;;;;9.25;5.28;;;;;;;20.45;100.00;96634.22;6130144;23;20008;-81
2023/09/06 00:27:06;;;;;;;7.57;4.83;;;;;;;21.06;100.00;96630.25;6130112;23;20463;-81
2023/09/06 00:29:32;;;;;;;8.30;4.90;;;;;;;20.85;100.00;96625.22;6181361;23;20032;-82
2023/09/06 00:31:58;;;;;;;6.65;4.47;;;;;;;20.51;100.00;96627.25;6154780;23;20011;-81
2023/09/06 00:34:24;;;;;;;7.32;4.80;;;;;;;20.54;100.00;96632.16;6129931;23;20434;-81
2023/09/06 00:36:49;;;;;;;8.17;4.90;;;;;;;20.67;100.00;96629.44;6129370;23;20016;-81
2023/09/06 00:39:16;;;;;;;10.00;5.53;;;;;;;20.83;100.00;96630.78;6130582;23;20059;-82
2023/09/06 00:41:42;;;;;;;9.30;5.20;;;;;;;20.80;100.00;96625.88;6152742;23;20009;-81
2023/09/06 00:44:08;;;;;;;8.47;4.87;;;;;;;20.82;100.00;96628.31;6153041;23;20009;-81
2023/09/06 00:46:34;;;;;;;7.80;5.40;;;;;;;20.68;100.00;96622.22;6128703;23;20104;-81
2023/09/06 00:49:00;;;;;;;7.73;4.60;;;;;;;20.74;100.00;96621.38;6131483;23;20001;-81
2023/09/06 00:52:00;;;;;;;11.37;5.10;;;;;;;20.62;100.00;96615.91;6155535;23;20016;-81
2023/09/06 00:54:26;;;;;;;8.07;5.28;;;;;;;20.30;100.00;96619.50;6130151;23;20084;-81
2023/09/06 00:56:53;;;;;;;8.47;4.80;;;;;;;20.55;100.00;96623.09;6154804;23;20011;-81
2023/09/06 00:59:22;;;;;;;8.35;4.80;;;;;;;20.63;100.00;96616.72;6137532;23;20005;-81
2023/09/06 01:01:47;;;;;;;8.00;4.73;;;;;;;20.48;100.00;96615.09;6153665;23;20712;-81
2023/09/06 01:04:13;;;;;;;8.73;5.05;;;;;;;20.43;100.00;96609.56;6130719;23;20009;-81
2023/09/06 01:06:41;;;;;;;9.67;5.13;;;;;;;20.28;100.00;96608.19;6154604;23;20001;-81
2023/09/06 01:09:16;;;;;;;8.00;5.00;;;;;;;20.17;100.00;96601.66;6154870;23;20028;-81
2023/09/06 01:11:41;;;;;;;7.57;4.50;;;;;;;20.34;100.00;96605.50;6129796;23;20429;-81
2023/09/06 01:14:08;;;;;;;9.27;4.30;;;;;;;20.24;100.00;96605.94;6130219;23;20004;-81
2023/09/06 01:16:44;;;;;;;8.10;4.33;;;;;;;19.90;100.00;96607.06;6129969;23;20433;-81
2023/09/06 01:19:14;;;;;;;6.53;4.30;;;;;;;20.36;100.00;96603.44;6130193;23;20063;-81
2023/09/06 01:22:08;;;;;;;8.67;4.37;;;;;;;20.62;100.00;96597.19;6129723;23;20012;-81
2023/09/06 01:24:35;;;;;;;7.55;4.72;;;;;;;20.49;100.00;96602.56;6130437;23;20088;-82
2023/09/06 01:27:01;;;;;;;7.53;4.80;;;;;;;20.19;100.00;96603.09;6154018;23;20001;-81
2023/09/06 01:29:29;;;;;;;8.57;5.10;;;;;;;20.53;100.00;96597.66;6155264;23;20769;-81
2023/09/06 01:31:57;;;;;;;8.93;5.07;;;;;;;20.38;100.00;96601.38;6129953;23;20009;-81
2023/09/06 01:34:22;;;;;;;8.83;4.80;;;;;;;20.72;100.00;96599.38;6129803;23;20029;-81
2023/09/06 01:36:48;;;;;;;7.30;4.83;;;;;;;20.22;100.00;96597.34;6155094;23;20012;-81
2023/09/06 01:39:15;;;;;;;10.13;5.43;;;;;;;20.42;100.00;96599.09;6131475;23;20011;-81
2023/09/06 01:41:41;;;;;;;8.03;4.77;;;;;;;20.29;100.00;96597.31;6131775;23;20075;-81
2023/09/06 01:44:07;;;;;;;8.13;5.47;;;;;;;20.28;100.00;96595.66;6132232;23;20009;-81
2023/09/06 01:46:33;;;;;;;9.80;6.30;;;;;;;20.12;100.00;96598.78;6132495;23;20028;-81
2023/09/06 01:48:59;;;;;;;9.23;5.73;;;;;;;20.07;100.00;96591.41;6132282;23;20372;-81
2023/09/06 01:51:25;;;;;;;10.03;5.60;;;;;;;20.23;100.00;96603.50;6131299;23;20446;-81
2023/09/06 01:53:51;;;;;;;10.13;5.70;;;;;;;20.30;100.00;96601.63;6132954;23;20005;-81
2023/09/06 01:56:16;;;;;;;8.33;5.60;;;;;;;20.09;100.00;96594.72;6155579;23;20011;-81
2023/09/06 01:58:42;;;;;;;8.03;4.90;;;;;;;20.16;100.00;96592.84;6132367;23;20005;-81
2023/09/06 02:01:09;;;;;;;8.10;5.63;;;;;;;20.36;100.00;96592.75;6132504;23;20368;-81
2023/09/06 02:03:35;;;;;;;7.60;5.00;;;;;;;20.40;100.00;96595.81;6159683;23;20013;-81
2023/09/06 02:06:04;;;;;;;9.17;5.57;;;;;;;20.36;100.00;96590.09;6130358;23;20396;-81
2023/09/06 02:08:44;;;;;;;8.30;5.67;;;;;;;20.29;100.00;96594.66;6134290;23;20021;-82
2023/09/06 02:11:10;;;;;;;9.37;5.07;;;;;;;20.53;100.00;96595.81;6133851;23;20009;-81
2023/09/06 02:13:35;;;;;;;9.97;6.00;;;;;;;20.22;100.00;96597.34;6135198;23;20028;-81
2023/09/06 02:16:03;;;;;;;9.03;5.80;;;;;;;20.11;100.00;96592.63;6158476;23;20076;-81
2023/09/06 02:18:29;;;;;;;7.93;5.53;;;;;;;20.23;100.00;96595.47;6133840;23;20066;-81
2023/09/06 02:20:58;;;;;;;9.93;5.87;;;;;;;20.02;100.00;96591.25;6134292;23;20004;-81
2023/09/06 02:23:24;;;;;;;9.80;5.97;;;;;;;19.94;100.00;96597.63;6158433;23;20028;-81
2023/09/06 02:25:49;;;;;;;8.17;5.60;;;;;;;19.43;100.00;96598.28;6133686;23;20005;-81
2023/09/06 02:28:17;;;;;;;9.47;5.97;;;;;;;19.58;100.00;96608.72;6133936;23;20071;-81
2023/09/06 02:30:44;;;;;;;10.67;6.90;;;;;;;19.68;100.00;96600.34;6134446;23;20011;-81
2023/09/06 02:33:14;;;;;;;9.27;6.07;;;;;;;19.59;100.00;96597.03;6134293;23;20017;-83
2023/09/06 02:35:41;;;;;;;9.67;5.93;;;;;;;19.47;100.00;96596.03;6134142;23;20366;-81
2023/09/06 02:38:11;;;;;;;12.57;6.37;;;;;;;19.47;100.00;96593.34;6133388;23;20008;-81
2023/09/06 02:40:40;;;;;;;8.50;5.90;;;;;;;19.50;100.00;96599.09;6133895;23;20057;-81
2023/09/06 02:43:06;;;;;;;9.60;5.77;;;;;;;19.64;100.00;96597.25;6134252;23;20016;-82
2023/09/06 02:45:37;;;;;;;7.83;5.23;;;;;;;19.45;100.00;96600.72;6133956;23;20009;-81
2023/09/06 02:48:07;;;;;;;10.13;6.30;;;;;;;19.49;100.00;96597.47;6158379;23;20334;-81
2023/09/06 02:50:36;;;;;;;9.80;6.00;;;;;;;19.42;100.00;96599.31;6184594;23;20341;-81
2023/09/06 02:53:03;;;;;;;10.07;6.10;;;;;;;19.50;100.00;96599.09;6133933;23;20047;-81
2023/09/06 02:55:35;;;;;;;10.03;6.30;;;;;;;19.47;100.00;96594.16;6133471;23;20020;-81
2023/09/06 02:58:02;;;;;;;9.87;6.40;;;;;;;19.47;100.00;96599.50;6133315;23;20009;-82
2023/09/06 03:00:29;;;;;;;8.10;5.77;;;;;;;19.52;100.00;96594.38;6158292;23;20019;-81
2023/09/06 03:02:55;;;;;;;10.93;5.80;;;;;;;19.13;100.00;96602.38;6183504;23;20061;-81
2023/09/06 03:05:22;;;;;;;9.60;7.07;;;;;;;19.01;100.00;96604.81;6129931;23;20008;-81
2023/09/06 03:07:48;;;;;;;8.17;5.33;;;;;;;18.86;100.00;96605.00;6130656;23;20001;-81
2023/09/06 03:10:19;;;;;;;8.73;5.83;;;;;;;18.84;100.00;96599.03;6129296;23;20430;-80
2023/09/06 03:12:47;;;;;;;8.90;5.80;;;;;;;18.79;100.00;96599.66;6130446;23;20088;-81
2023/09/06 03:15:15;;;;;;;8.53;6.30;;;;;;;18.69;100.00;96603.72;6130047;23;20016;-81
2023/09/06 03:17:41;;;;;;;9.50;5.70;;;;;;;18.66;100.00;96604.94;6130485;23;20064;-81
2023/09/06 03:20:18;;;;;;;8.17;5.50;;;;;;;18.70;100.00;96608.81;6130738;23;20009;-81
2023/09/06 03:22:50;;;;;;;8.67;5.37;;;;;;;19.20;100.00;96603.19;6130559;23;20005;-81
2023/09/06 03:25:17;;;;;;;8.27;6.00;;;;;;;18.97;100.00;96603.59;6129245;23;20009;-80
2023/09/06 03:27:44;;;;;;;8.80;5.87;;;;;;;19.01;100.00;96596.81;6130661;23;20009;-82
2023/09/06 03:30:14;;;;;;;9.80;5.73;;;;;;;18.98;100.00;96599.88;6130479;23;20000;-81
2023/09/06 03:32:51;;;;;;;9.90;6.20;;;;;;;18.51;100.00;96607.75;6131107;23;20009;-81
2023/09/06 03:35:17;;;;;;;10.60;5.57;;;;;;;18.73;100.00;96597.81;6154585;23;20108;-81
2023/09/06 03:37:43;;;;;;;9.43;6.07;;;;;;;18.62;100.00;96598.38;6130255;23;20763;-81
2023/09/06 03:42:56;;;;;;;10.40;6.47;;;;;;;18.61;100.00;96592.22;6158079;23;20031;-80
2023/09/06 03:45:21;;;;;;;9.03;5.70;;;;;;;18.77;100.00;96595.56;6130923;23;20009;-82
2023/09/06 03:47:48;;;;;;;20.73;6.70;;;;;;;19.06;100.00;96592.53;6155856;23;20001;-80
2023/09/06 03:50:15;;;;;;;11.47;6.03;;;;;;;18.81;100.00;96588.78;6129497;23;20044;-80
2023/09/06 03:52:43;;;;;;;9.57;6.50;;;;;;;18.78;100.00;96586.56;6130424;23;20013;-79
2023/09/06 03:55:10;;;;;;;9.57;6.60;;;;;;;18.82;100.00;96591.25;6127533;23;20064;-81
2023/09/06 03:57:37;;;;;;;11.40;7.40;;;;;;;18.70;100.00;96594.69;6150944;23;20005;-81
2023/09/06 04:00:26;;;;;;;8.47;5.83;;;;;;;18.54;100.00;96594.06;6152394;23;20005;-80
2023/09/06 04:03:03;;;;;;;9.80;6.07;;;;;;;18.50;100.00;96597.28;6129317;23;20009;-80
2023/09/06 04:05:32;;;;;;;8.80;6.63;;;;;;;18.45;100.00;96599.75;6125243;23;20012;-81
2023/09/06 04:08:00;;;;;;;8.83;5.90;;;;;;;18.74;100.00;96603.94;6127639;23;20012;-80
2023/09/06 04:10:36;;;;;;;8.33;6.10;;;;;;;18.36;100.00;96607.06;6127671;23;20043;-81
2023/09/06 04:13:04;;;;;;;9.20;6.63;;;;;;;18.48;100.00;96612.66;6126793;23;20005;-80
2023/09/06 04:15:34;;;;;;;12.80;6.43;;;;;;;18.44;100.00;96608.75;6126587;23;20312;-80
2023/09/06 04:18:02;;;;;;;11.97;6.37;;;;;;;18.28;100.00;96601.94;6127399;23;20024;-80
2023/09/06 04:20:36;;;;;;;9.90;7.13;;;;;;;18.00;100.00;96599.34;6127462;23;20097;-80
2023/09/06 04:23:09;;;;;;;10.03;6.73;;;;;;;18.16;100.00;96606.19;6127198;23;20009;-80
2023/09/06 04:25:46;;;;;;;10.10;7.33;;;;;;;17.71;100.00;96613.69;6127277;23;20055;-80
2023/09/06 04:28:21;;;;;;;13.77;6.37;;;;;;;17.97;100.00;96613.84;6128569;23;20446;-80
2023/09/06 04:30:49;;;;;;;9.23;6.80;;;;;;;17.67;100.00;96610.56;6128046;23;20017;-80
2023/09/06 04:33:18;;;;;;;9.40;6.13;;;;;;;18.04;100.00;96616.53;6127200;23;20083;-80
2023/09/06 04:36:13;;;;;;;9.27;6.07;;;;;;;17.72;100.00;96617.97;6131563;23;20155;-80
2023/09/06 04:38:38;;;;;;;8.73;6.43;;;;;;;17.67;100.00;96624.72;6127783;23;20388;-80
2023/09/06 04:41:07;;;;;;;10.20;6.90;;;;;;;17.33;100.00;96629.94;6127800;23;20009;-81
2023/09/06 04:43:38;;;;;;;12.07;7.00;;;;;;;17.26;100.00;96621.09;6131333;23;20027;-81
2023/09/06 04:46:04;;;;;;;11.30;7.00;;;;;;;17.33;100.00;96629.94;6128022;23;20009;-80
2023/09/06 04:48:36;;;;;;;10.70;7.53;;;;;;;17.42;100.00;96632.28;6129553;23;20852;-82
2023/09/06 04:51:02;;;;;;;9.37;6.77;;;;;;;17.90;100.00;96628.97;6126735;23;20468;-83
2023/09/06 04:53:28;;;;;;;10.43;6.93;;;;;;;18.22;100.00;96627.50;6128233;23;20009;-82
2023/09/06 04:55:55;;;;;;;14.90;7.17;;;;;;;18.22;100.00;96624.03;6127830;23;20118;-82
2023/09/06 04:58:24;;;;;;;10.10;6.63;;;;;;;17.98;100.00;96626.16;6153319;23;20016;-82
2023/09/06 05:00:50;;;;;;;11.00;6.43;;;;;;;18.23;100.00;96623.81;6128510;23;20009;-82
2023/09/06 05:03:21;;;;;;;9.70;7.20;;;;;;;18.52;100.00;96629.88;6127050;23;20433;-81
2023/09/06 05:05:52;;;;;;;10.97;7.13;;;;;;;18.79;100.00;96628.16;6128662;23;20091;-82
2023/09/06 05:08:19;;;;;;;10.93;6.97;;;;;;;18.99;100.00;96631.69;6128342;23;20458;-82
2023/09/06 05:10:51;;;;;;;11.63;6.67;;;;;;;18.65;100.00;96621.94;6153678;23;20001;-82
2023/09/06 05:13:18;;;;;;;9.40;6.90;;;;;;;18.29;100.00;96633.69;6129275;23;20202;-81
2023/09/06 05:15:44;;;;;;;10.90;6.53;;;;;;;18.43;100.00;96633.75;6153710;23;20009;-82
2023/09/06 05:18:11;;;;;;;10.33;7.37;;;;;;;18.61;100.00;96632.19;6129287;23;20486;-82
2023/09/06 05:20:39;;;;;;;9.27;6.53;;;;;;;18.51;100.00;96634.41;6129579;23;20000;-82
2023/09/06 05:23:12;;;;;;;13.03;7.33;;;;;;;18.89;100.00;96619.78;6130383;23;20016;-81
2023/09/06 05:25:39;;;;;;;9.63;6.33;;;;;;;18.08;100.00;96631.94;6128916;23;20136;-82
2023/09/06 05:28:10;;;;;;;12.33;7.57;;;;;;;18.43;100.00;96628.41;6129220;23;20466;-81
2023/09/06 05:30:44;;;;;;;10.93;6.85;;;;;;;18.47;100.00;96633.13;6130378;23;20038;-81
2023/09/06 05:33:13;;;;;;;9.90;6.80;;;;;;;18.38;100.00;96632.50;6153989;23;20004;-82
2023/09/06 05:35:41;;;;;;;9.50;6.03;;;;;;;18.78;100.00;96626.53;6130192;23;20004;-82
2023/09/06 05:38:09;;;;;;;10.20;6.23;;;;;;;18.50;100.00;96623.94;6154775;23;20130;-82
2023/09/06 05:40:36;;;;;;;9.40;6.50;;;;;;;18.71;100.00;96622.97;6129483;23;20372;-82
2023/09/06 05:43:03;;;;;;;9.60;6.10;;;;;;;18.45;100.00;96627.19;6153448;23;20161;-81
2023/09/06 05:45:32;;;;;;;9.37;6.60;;;;;;;18.77;100.00;96635.53;6130564;23;20112;-82
2023/09/06 05:47:59;;;;;;;9.73;6.83;;;;;;;19.28;100.00;96637.66;6129444;23;20048;-82
2023/09/06 05:50:27;;;;;;;10.17;6.70;;;;;;;19.75;100.00;96626.00;6129158;23;20008;-81
2023/09/06 05:52:54;;;;;;;13.30;6.87;;;;;;;19.40;100.00;96625.34;6153249;23;20525;-82
2023/09/06 05:55:20;;;;;;;10.17;7.10;;;;;;;19.89;100.00;96629.47;6128172;23;20052;-82
2023/09/06 05:57:49;;;;;;;8.67;6.03;;;;;;;20.37;100.00;96626.44;6153073;23;20001;-81
2023/09/06 06:00:16;;;;;;;11.47;6.93;;;;;;;19.98;100.00;96625.53;6154511;23;20076;-82
2023/09/06 06:02:55;;;;;;;10.83;6.10;;;;;;;20.52;100.00;96623.53;6130844;23;20032;-82
2023/09/06 06:05:20;;;;;;;10.87;6.80;;;;;;;20.88;100.00;96628.28;6153229;23;20087;-81
2023/09/06 06:07:46;;;;;;;9.17;5.77;;;;;;;21.78;100.00;96622.72;6129498;23;20005;-82
2023/09/06 06:10:13;;;;;;;8.97;6.07;;;;;;;21.36;100.00;96629.63;6129591;23;20028;-81
2023/09/06 06:12:40;;;;;;;11.60;6.17;;;;;;;21.43;100.00;96627.75;6153395;23;20173;-82
2023/09/06 06:15:13;;;;;;;11.90;6.23;;;;;;;22.41;100.00;96626.22;6128864;23;20345;-82
2023/09/06 06:17:39;;;;;;;8.77;5.90;;;;;;;22.73;100.00;96627.63;6153407;23;20015;-82
2023/09/06 06:20:06;;;;;;;9.73;5.50;;;;;;;22.61;100.00;96632.16;6129901;23;20013;-81
2023/09/06 06:22:37;;;;;;;10.18;5.88;;;;;;;23.52;97.44;96627.56;6152913;23;20516;-81
2023/09/06 06:25:05;;;;;;;8.40;5.20;;;;;;;23.65;97.57;96632.72;6153536;23;20055;-82
2023/09/06 06:27:31;;;;;;;9.15;5.32;;;;;;;24.47;87.61;96629.19;6128057;23;20080;-82
2023/09/06 06:29:56;;;;;;;10.07;5.75;;;;;;;25.16;82.35;96637.28;6154753;23;20020;-81
2023/09/06 06:32:22;;;;;;;9.80;6.05;;;;;;;25.23;83.47;96635.25;6126013;23;20012;-82
2023/09/06 06:34:50;;;;;;;10.88;5.93;;;;;;;25.37;81.75;96641.16;6129509;23;20057;-82
2023/09/06 06:37:16;;;;;;;8.88;4.95;;;;;;;25.75;81.35;96640.41;6127850;23;20068;-82
2023/09/06 06:39:41;;;;;;;9.85;5.82;;;;;;;25.70;80.30;96640.34;6128915;23;20013;-81
2023/09/06 06:42:07;;;;;;;8.80;4.85;;;;;;;25.44;78.34;96633.72;6152794;23;20005;-82
2023/09/06 06:44:38;;;;;;;8.80;5.03;;;;;;;25.61;75.29;96634.53;6153226;23;20005;-82
2023/09/06 06:47:04;;;;;;;9.30;4.45;;;;;;;25.79;76.84;96638.06;6127506;23;20036;-82
2023/09/06 06:49:30;;;;;;;8.38;4.75;;;;;;;26.61;71.65;96625.75;6128945;23;20012;-80
2023/09/06 06:51:55;;;;;;;8.45;5.40;;;;;;;26.14;72.65;96626.19;6151519;23;20001;-81
2023/09/06 06:54:21;;;;;;;9.45;4.47;;;;;;;25.20;84.55;96638.44;6129093;23;20000;-81
2023/09/06 06:56:46;;;;;;;9.23;5.45;;;;;;;26.11;74.49;96632.91;6151961;23;20005;-80
2023/09/06 06:59:13;;;;;;;9.25;4.60;;;;;;;26.97;69.40;96630.50;6154081;23;20005;-80
2023/09/06 07:01:38;;;;;;;8.85;5.20;;;;;;;25.43;76.65;96639.38;6128988;23;20269;-81
2023/09/06 07:04:04;;;;;;;7.75;4.53;;;;;;;25.62;80.03;96640.78;6129284;23;20000;-81
2023/09/06 07:06:30;;;;;;;8.70;5.30;;;;;;;26.61;71.76;96636.53;6127264;23;20032;-80
2023/09/06 07:08:57;;;;;;;6.90;4.30;;;;;;;27.17;66.87;96645.31;6153114;23;20004;-81
2023/09/06 07:11:24;;;;;;;8.32;4.70;;;;;;;26.16;71.11;96648.34;6130039;23;20091;-81
2023/09/06 07:13:50;;;;;;;7.40;4.70;;;;;;;28.23;61.31;96636.41;6144242;23;20036;-81
2023/09/06 07:16:18;;;;;;;6.93;4.45;;;;;;;28.06;61.09;96635.78;6154543;23;20056;-80
2023/09/06 07:18:47;;;;;;;7.90;4.50;;;;;;;27.83;62.42;96640.47;6135223;23;20013;-81
2023/09/06 07:21:13;;;;;;;9.10;4.93;;;;;;;27.58;61.85;96638.38;6128416;23;20043;-80
2023/09/06 07:23:39;;;;;;;7.45;4.25;;;;;;;27.33;66.99;96638.97;6153605;23;20060;-81
2023/09/06 07:26:05;;;;;;;10.20;4.50;;;;;;;27.34;63.60;96639.78;6127609;23;20012;-81
2023/09/06 07:28:37;;;;;;;7.50;4.30;;;;;;;29.41;55.60;96636.84;6130107;23;20093;-81
2023/09/06 07:31:02;;;;;;;7.60;4.53;;;;;;;29.62;53.59;96635.81;6128850;23;20008;-80
2023/09/06 07:33:28;;;;;;;8.25;4.60;;;;;;;28.04;59.28;96632.53;6127752;23;20012;-81
2023/09/06 07:35:53;;;;;;;7.38;4.32;;;;;;;28.24;59.18;96638.06;6127692;23;20016;-80
2023/09/06 07:38:19;;;;;;;6.18;4.55;;;;;;;27.58;62.69;96634.88;6128655;23;20013;-81
2023/09/06 07:40:45;;;;;;;8.30;4.95;;;;;;;28.33;57.99;96641.06;6128646;23;20013;-81
2023/09/06 07:43:12;;;;;;;7.32;4.63;;;;;;;28.29;60.75;96638.06;6127703;23;20500;-80
2023/09/06 07:45:38;;;;;;;9.32;4.40;;;;;;;29.28;54.78;96635.50;6128516;23;20152;-80
2023/09/06 07:48:04;;;;;;;8.50;4.57;;;;;;;29.16;54.95;96641.16;6152512;23;20288;-81
2023/09/06 07:50:30;;;;;;;6.85;4.25;;;;;;;30.63;52.31;96634.03;6149890;23;20589;-81
2023/09/06 07:52:55;;;;;;;6.10;4.38;;;;;;;31.14;48.73;96625.63;6126809;23;20040;-80
2023/09/06 07:55:21;;;;;;;7.30;4.88;;;;;;;31.78;47.19;96631.19;6127839;23;19997;-81
2023/09/06 07:57:47;;;;;;;8.95;4.82;;;;;;;31.38;47.08;96633.13;6151955;23;20005;-82
2023/09/06 08:00:13;;;;;;;5.97;4.13;;;;;;;30.80;47.03;96636.44;6153092;23;20444;-81
2023/09/06 08:02:39;;;;;;;9.30;4.47;;;;;;;31.06;47.76;96647.97;6179385;23;20475;-81
2023/09/06 08:05:04;;;;;;;6.35;4.35;;;;;;;31.13;46.62;96642.22;6128793;23;20009;-82
2023/09/06 08:07:30;;;;;;;7.13;4.30;;;;;;;31.39;46.73;96640.19;6126965;23;20000;-81
2023/09/06 08:09:56;;;;;;;7.60;4.32;;;;;;;31.48;46.88;96638.47;6152556;23;20036;-81
2023/09/06 08:12:21;;;;;;;6.50;3.90;;;;;;;30.15;48.50;96641.75;6152762;23;20005;-81
2023/09/06 08:14:47;;;;;;;5.60;3.60;;;;;;;31.38;47.21;96649.44;6128768;23;20008;-81
2023/09/06 08:17:12;;;;;;;7.35;4.50;;;;;;;31.80;46.12;96645.31;6127417;23;20013;-82
2023/09/06 08:19:38;;;;;;;8.02;3.80;;;;;;;32.75;44.73;96643.81;6152338;23;20361;-81
2023/09/06 08:22:04;;;;;;;8.60;4.38;;;;;;;30.89;47.09;96656.47;6129076;23;20004;-80
2023/09/06 08:24:31;;;;;;;7.07;4.03;;;;;;;31.09;47.11;96655.56;6128314;23;20005;-81
2023/09/06 08:26:56;;;;;;;9.50;4.43;;;;;;;32.11;47.03;96656.75;6127625;23;20012;-81
2023/09/06 08:29:22;;;;;;;6.30;3.65;;;;;;;32.22;47.20;96649.28;6128383;23;20036;-81
2023/09/06 08:31:48;;;;;;;6.63;4.07;;;;;;;32.93;44.57;96647.66;6127506;23;20040;-81
2023/09/06 08:34:13;;;;;;;7.28;3.47;;;;;;;32.46;44.80;96652.03;6126973;23;20005;-81
2023/09/06 08:36:39;;;;;;;8.48;3.60;;;;;;;32.65;44.94;96658.38;6150540;23;20004;-81
2023/09/06 08:39:06;;;;;;;5.60;3.60;;;;;;;32.92;45.86;96657.75;6180065;23;20005;-81
2023/09/06 08:41:32;;;;;;;7.07;4.40;;;;;;;33.20;43.19;96657.94;6151667;23;20036;-81
2023/09/06 08:44:03;;;;;;;7.13;4.22;;;;;;;32.22;44.73;96662.91;6152570;23;20035;-81
2023/09/06 08:46:33;;;;;;;6.18;3.97;;;;;;;33.40;43.91;96654.97;6125450;23;20013;-81
2023/09/06 08:49:03;;;;;;;5.93;3.83;;;;;;;31.56;46.13;96662.34;6151893;23;20009;-81
2023/09/06 08:51:35;;;;;;;6.22;3.80;;;;;;;32.42;44.74;96667.31;6127819;23;20508;-81
2023/09/06 08:54:03;;;;;;;6.90;3.92;;;;;;;34.21;42.11;96673.88;6150721;23;20130;-81
2023/09/06 08:56:31;;;;;;;8.93;4.32;;;;;;;33.27;42.44;96666.59;6126924;23;20005;-81
2023/09/06 08:58:57;;;;;;;7.55;4.03;;;;;;;33.45;42.19;96663.03;6152757;23;20040;-81
2023/09/06 09:01:23;;;;;;;5.38;3.55;;;;;;;33.36;42.54;96672.19;6127056;23;20005;-81
2023/09/06 09:03:48;;;;;;;5.15;3.63;;;;;;;34.54;40.24;96671.91;6127045;23;20560;-81
2023/09/06 09:06:14;;;;;;;5.90;3.60;;;;;;;33.21;43.52;96667.78;6126908;23;20327;-81
2023/09/06 09:08:39;;;;;;;6.75;3.80;;;;;;;35.01;40.67;96666.31;6152049;23;20052;-80
2023/09/06 09:11:10;;;;;;;6.68;4.05;;;;;;;32.96;42.15;96672.44;6127578;23;20001;-80
2023/09/06 09:13:36;;;;;;;6.15;4.05;;;;;;;33.83;41.93;96678.56;6127175;23;20171;-80
2023/09/06 09:16:09;;;;;;;6.45;4.18;;;;;;;34.06;41.30;96679.59;6126812;23;20004;-80
2023/09/06 09:18:37;;;;;;;6.75;4.20;;;;;;;34.87;41.09;96675.34;6128165;23;20438;-80
2023/09/06 09:21:03;;;;;;;5.90;3.33;;;;;;;33.88;40.85;96682.03;6128025;23;20013;-80
2023/09/06 09:23:30;;;;;;;7.63;3.55;;;;;;;34.51;41.21;96672.50;6128353;23;20470;-80
2023/09/06 09:25:57;;;;;;;5.28;3.58;;;;;;;33.83;42.71;96678.56;6127050;23;20029;-81
2023/09/06 09:28:23;;;;;;;6.07;3.50;;;;;;;32.84;43.26;96669.31;6128675;23;20005;-80
2023/09/06 09:30:49;;;;;;;7.18;3.78;;;;;;;33.35;42.57;96667.84;6127545;23;20341;-80
2023/09/06 09:33:14;;;;;;;6.90;3.47;;;;;;;33.43;43.19;96665.25;6152143;23;20284;-82
2023/09/06 09:35:40;;;;;;;7.40;3.60;;;;;;;33.89;41.68;96678.19;6127696;23;20092;-80
2023/09/06 09:38:10;;;;;;;6.53;3.83;;;;;;;32.55;43.03;96672.91;6127815;23;20080;-80
2023/09/06 09:40:37;;;;;;;5.75;3.67;;;;;;;32.61;42.83;96674.47;6152539;23;20001;-80
2023/09/06 09:43:04;;;;;;;5.90;3.67;;;;;;;32.74;45.29;96677.63;6152084;23;20023;-80
2023/09/06 09:45:43;;;;;;;5.13;3.33;;;;;;;33.05;43.01;96676.13;6178697;23;20005;-80
2023/09/06 09:48:09;;;;;;;5.45;3.60;;;;;;;34.54;41.26;96665.63;6126983;23;20511;-81
2023/09/06 09:50:36;;;;;;;7.85;3.92;;;;;;;33.26;42.78;96676.66;6127873;23;20001;-81
2023/09/06 09:53:05;;;;;;;7.75;4.13;;;;;;;31.84;45.38;96671.63;6127401;23;20016;-80
2023/09/06 09:55:34;;;;;;;8.52;3.83;;;;;;;32.69;44.94;96670.28;6150464;23;20005;-80
2023/09/06 09:58:05;;;;;;;8.07;3.83;;;;;;;32.22;46.59;96669.16;6127662;23;20460;-80
2023/09/06 10:00:32;;;;;;;6.65;3.80;;;;;;;33.60;43.63;96662.03;6130203;23;20011;-81
2023/09/06 10:03:00;;;;;;;6.32;3.58;;;;;;;33.11;43.45;96660.53;6129340;23;20016;-81
2023/09/06 10:05:29;;;;;;;4.90;3.50;;;;;;;33.42;42.95;96658.19;6154155;23;20035;-80
2023/09/06 10:07:56;;;;;;;6.70;3.90;;;;;;;32.57;44.30;96668.00;6128733;23;20088;-80
2023/09/06 10:10:26;;;;;;;4.90;3.67;;;;;;;34.35;43.04;96663.78;6133716;23;20005;-80
2023/09/06 10:12:53;;;;;;;6.07;3.30;;;;;;;34.93;41.40;96655.00;6129100;23;20016;-80
2023/09/06 10:15:23;;;;;;;5.68;3.72;;;;;;;33.90;41.36;96657.19;6129725;23;20012;-80
2023/09/06 10:17:51;;;;;;;5.75;3.70;;;;;;;34.23;43.64;96658.78;6128962;23;20483;-80
2023/09/06 10:20:22;;;;;;;7.13;4.20;;;;;;;34.72;39.63;96659.28;6154660;23;20005;-80
2023/09/06 10:22:52;;;;;;;6.32;3.80;;;;;;;34.46;39.11;96659.72;6131286;23;20060;-78
2023/09/06 10:25:18;;;;;;;5.50;3.35;;;;;;;35.39;38.27;96654.00;6146769;23;20055;-79
2023/09/06 10:27:57;;;;;;;5.65;3.50;;;;;;;35.30;38.77;96666.78;6151848;23;20012;-80
2023/09/06 10:30:44;;;;;;;7.25;3.95;;;;;;;31.93;41.77;96666.44;6163665;23;20015;-79
2023/09/06 10:33:33;;;;;;;7.95;3.50;;;;;;;31.31;43.21;96660.56;6153902;23;20013;-79
2023/09/06 10:36:03;;;;;;;7.85;4.32;;;;;;;31.16;44.38;96663.41;6126637;23;20069;-79
2023/09/06 10:38:30;;;;;;;5.70;3.60;;;;;;;31.91;41.93;96660.47;6128258;23;20009;-79
2023/09/06 10:40:55;;;;;;;6.57;3.47;;;;;;;31.74;43.84;96660.03;6129728;23;20620;-79
2023/09/06 10:43:28;;;;;;;5.40;3.60;;;;;;;31.86;43.06;96655.88;6153366;23;20059;-82
2023/09/06 10:45:54;;;;;;;4.82;3.67;;;;;;;33.15;39.69;96658.84;6153112;23;20005;-79
2023/09/06 10:48:20;;;;;;;6.13;3.55;;;;;;;33.29;39.49;96648.00;6129573;23;20511;-80
2023/09/06 10:51:04;;;;;;;4.22;2.90;;;;;;;33.81;39.34;96656.25;6153684;23;20032;-79
2023/09/06 10:53:30;;;;;;;6.53;3.33;;;;;;;33.23;41.14;96666.34;6129053;23;20009;-79
2023/09/06 10:55:58;;;;;;;7.78;3.47;;;;;;;32.12;42.26;96659.16;6128186;23;20012;-79
2023/09/06 10:58:27;;;;;;;4.78;2.97;;;;;;;33.29;42.37;96653.47;6128831;23;20001;-79
2023/09/06 11:01:18;;;;;;;5.03;2.92;;;;;;;34.81;39.13;96649.25;6128147;23;20431;-79
2023/09/06 11:03:50;;;;;;;6.22;3.47;;;;;;;34.39;39.50;96653.88;6128657;23;20477;-80
2023/09/06 11:06:15;;;;;;;6.68;4.38;;;;;;;34.65;39.30;96645.22;6153191;23;20063;-79
2023/09/06 11:08:41;;;;;;;8.38;4.60;;;;;;;34.90;38.21;96646.59;6128588;23;20032;-80
2023/09/06 11:11:10;;;;;;;5.45;3.05;;;;;;;32.52;39.91;96640.00;6127737;23;20349;-80
2023/09/06 11:13:37;;;;;;;4.80;3.20;;;;;;;32.49;41.76;96649.56;6179850;23;20007;-80
2023/09/06 11:16:04;;;;;;;6.00;2.72;;;;;;;33.77;40.26;96648.66;6129040;23;20013;-80
2023/09/06 11:18:32;;;;;;;4.53;2.53;;;;;;;33.56;39.04;96642.72;6153368;23;20012;-80
2023/09/06 11:20:59;;;;;;;5.70;3.22;;;;;;;33.76;40.42;96638.03;6151511;23;20015;-80
2023/09/06 11:23:26;;;;;;;6.40;3.35;;;;;;;33.42;40.56;96636.38;6154059;23;20005;-79
2023/09/06 11:25:58;;;;;;;5.70;2.97;;;;;;;34.06;40.27;96633.19;6128132;23;20087;-80
2023/09/06 11:28:28;;;;;;;5.53;2.70;;;;;;;33.33;38.77;96632.69;6158436;23;20037;-80
2023/09/06 11:30:55;;;;;;;6.90;2.67;;;;;;;33.73;38.41;96633.19;6128512;23;20264;-80
2023/09/06 11:33:29;;;;;;;5.28;2.80;;;;;;;34.33;37.69;96625.03;6153251;23;20434;-79